WZZ28M EPKK-EPGD
Flight info
| Callsign | WZZ28M |
|---|---|
| Flight time | 0h 59m |
| Altitude | 36000 |
| Route | NAVUR N744 OVBOR N133 GRUDA/N0431F350 Z95 OSLOG |
| Aircraft | A320/M-SDE3FGHIRWY/LB1 |
Departure
| Time | 2026-05-06 16:20 |
|---|---|
| Airport | Kraków John Paul II International Airport (EPKK) |
Arrival
| Time | 2026-05-06 17:19 |
|---|---|
| Airport | Gdańsk Lech Wałęsa Airport (EPGD) |
| Time | Latitude | Longitude | Altitude | Speed | Heading |
|---|---|---|---|---|---|
| 2026-05-06 15:11 | 50.07414 | 19.80464 | 789 ft | 0 kts | 107° |
| 2026-05-06 16:12 | 50.07421 | 19.80429 | 788 ft | 4 kts | 111° |
| 2026-05-06 16:12 | 50.07431 | 19.80395 | 788 ft | 1 kts | 121° |
| 2026-05-06 16:13 | 50.07442 | 19.80363 | 788 ft | 4 kts | 103° |
| 2026-05-06 16:13 | 50.07443 | 19.80328 | 788 ft | 2 kts | 78° |
| 2026-05-06 16:13 | 50.07440 | 19.80303 | 788 ft | 0 kts | 78° |
| 2026-05-06 16:16 | 50.07441 | 19.80315 | 788 ft | 2 kts | 77° |
| 2026-05-06 16:17 | 50.07452 | 19.80351 | 788 ft | 5 kts | 60° |
| 2026-05-06 16:17 | 50.07485 | 19.80387 | 788 ft | 7 kts | 16° |
| 2026-05-06 16:17 | 50.07538 | 19.80410 | 788 ft | 8 kts | 17° |
| 2026-05-06 16:17 | 50.07603 | 19.80421 | 788 ft | 11 kts | 352° |
| 2026-05-06 16:18 | 50.07678 | 19.80393 | 788 ft | 10 kts | 347° |
| 2026-05-06 16:18 | 50.07749 | 19.80368 | 788 ft | 1 kts | 347° |
| 2026-05-06 16:18 | 50.07763 | 19.80364 | 789 ft | 4 kts | 347° |
| 2026-05-06 16:18 | 50.07800 | 19.80351 | 789 ft | 8 kts | 348° |
| 2026-05-06 16:19 | 50.07877 | 19.80325 | 789 ft | 13 kts | 348° |
| 2026-05-06 16:19 | 50.07971 | 19.80289 | 788 ft | 15 kts | 345° |
| 2026-05-06 16:19 | 50.08008 | 19.80162 | 788 ft | 15 kts | 256° |
| 2026-05-06 16:19 | 50.07974 | 19.79931 | 787 ft | 47 kts | 257° |
| 2026-05-06 16:20 | 50.07850 | 19.79059 | 789 ft | 114 kts | 259° |
| 2026-05-06 16:20 | 50.07626 | 19.77592 | 809 ft | 162 kts | 251° |
| 2026-05-06 16:20 | 50.07460 | 19.75842 | 1415 ft | 161 kts | 259° |
| 2026-05-06 16:20 | 50.07242 | 19.74139 | 2169 ft | 161 kts | 256° |
| 2026-05-06 16:21 | 50.06978 | 19.72352 | 2533 ft | 180 kts | 256° |
| 2026-05-06 16:21 | 50.06675 | 19.70322 | 2870 ft | 205 kts | 254° |
| 2026-05-06 16:21 | 50.06337 | 19.68041 | 3432 ft | 226 kts | 255° |
| 2026-05-06 16:21 | 50.06127 | 19.65569 | 4270 ft | 239 kts | 274° |
| 2026-05-06 16:22 | 50.06839 | 19.63167 | 5088 ft | 262 kts | 308° |
| 2026-05-06 16:22 | 50.08420 | 19.61633 | 5804 ft | 284 kts | 339° |
| 2026-05-06 16:22 | 50.10382 | 19.60959 | 6736 ft | 292 kts | 352° |
| 2026-05-06 16:22 | 50.12427 | 19.61292 | 7537 ft | 302 kts | 15° |
| 2026-05-06 16:23 | 50.14378 | 19.62535 | 7763 ft | 303 kts | 27° |
| 2026-05-06 16:23 | 50.16152 | 19.64300 | 7810 ft | 302 kts | 39° |
| 2026-05-06 16:23 | 50.17756 | 19.66418 | 7825 ft | 303 kts | 40° |
| 2026-05-06 16:23 | 50.19366 | 19.68549 | 7821 ft | 303 kts | 40° |
| 2026-05-06 16:24 | 50.20974 | 19.70684 | 7814 ft | 303 kts | 40° |
| 2026-05-06 16:24 | 50.22578 | 19.72827 | 7815 ft | 303 kts | 41° |
| 2026-05-06 16:24 | 50.24177 | 19.74978 | 7813 ft | 303 kts | 41° |
| 2026-05-06 16:24 | 50.25767 | 19.77131 | 7826 ft | 303 kts | 41° |
| 2026-05-06 16:25 | 50.27356 | 19.79295 | 7817 ft | 303 kts | 41° |
| 2026-05-06 16:25 | 50.28943 | 19.81463 | 7828 ft | 303 kts | 41° |
| 2026-05-06 16:25 | 50.30533 | 19.83635 | 7828 ft | 303 kts | 41° |
| 2026-05-06 16:25 | 50.32119 | 19.85801 | 7828 ft | 303 kts | 41° |
| 2026-05-06 16:26 | 50.33758 | 19.87878 | 7836 ft | 304 kts | 33° |
| 2026-05-06 16:26 | 50.35610 | 19.89351 | 7838 ft | 302 kts | 18° |
| 2026-05-06 16:26 | 50.37662 | 19.90127 | 7831 ft | 299 kts | 4° |
| 2026-05-06 16:26 | 50.39720 | 19.90224 | 8057 ft | 304 kts | 357° |
| 2026-05-06 16:27 | 50.41837 | 19.90237 | 9066 ft | 304 kts | 358° |
| 2026-05-06 16:27 | 50.43965 | 19.90268 | 10000 ft | 309 kts | 358° |
| 2026-05-06 16:27 | 50.46190 | 19.90305 | 10371 ft | 332 kts | 358° |
| 2026-05-06 16:27 | 50.48569 | 19.90343 | 10729 ft | 349 kts | 358° |
| 2026-05-06 16:28 | 50.51010 | 19.90384 | 10818 ft | 352 kts | 358° |
| 2026-05-06 16:28 | 50.53464 | 19.90425 | 10833 ft | 353 kts | 358° |
| 2026-05-06 16:28 | 50.55946 | 19.90463 | 11381 ft | 359 kts | 358° |
| 2026-05-06 16:28 | 50.58449 | 19.90498 | 11738 ft | 359 kts | 358° |
| 2026-05-06 16:29 | 50.60945 | 19.90533 | 11821 ft | 358 kts | 358° |
| 2026-05-06 16:29 | 50.63433 | 19.90572 | 11826 ft | 357 kts | 358° |
| 2026-05-06 16:29 | 50.65933 | 19.90612 | 12011 ft | 363 kts | 358° |
| 2026-05-06 16:29 | 50.68454 | 19.90663 | 12894 ft | 363 kts | 358° |
| 2026-05-06 16:30 | 50.70991 | 19.90720 | 13694 ft | 366 kts | 358° |
| 2026-05-06 16:30 | 50.72683 | 19.90760 | 14146 ft | 369 kts | 358° |
| 2026-05-06 16:30 | 50.76139 | 19.90838 | 15025 ft | 374 kts | 358° |
| 2026-05-06 16:30 | 50.78756 | 19.90890 | 15677 ft | 378 kts | 358° |
| 2026-05-06 16:31 | 50.81402 | 19.90938 | 16327 ft | 383 kts | 358° |
| 2026-05-06 16:31 | 50.84080 | 19.90981 | 16971 ft | 387 kts | 358° |
| 2026-05-06 16:31 | 50.86791 | 19.91021 | 17609 ft | 391 kts | 357° |
| 2026-05-06 16:31 | 50.89529 | 19.91058 | 18243 ft | 396 kts | 357° |
| 2026-05-06 16:32 | 50.92296 | 19.91082 | 18833 ft | 399 kts | 357° |
| 2026-05-06 16:32 | 50.95081 | 19.91094 | 19464 ft | 402 kts | 357° |
| 2026-05-06 16:32 | 50.97888 | 19.91271 | 20092 ft | 407 kts | 4° |
| 2026-05-06 16:32 | 51.00673 | 19.92186 | 20699 ft | 412 kts | 15° |
| 2026-05-06 16:33 | 51.03342 | 19.93911 | 21280 ft | 418 kts | 26° |
| 2026-05-06 16:33 | 51.05843 | 19.96306 | 21853 ft | 420 kts | 29° |
| 2026-05-06 16:33 | 51.08502 | 19.98208 | 22400 ft | 420 kts | 14° |
| 2026-05-06 16:34 | 51.14262 | 19.99130 | 23490 ft | 417 kts | 352° |
| 2026-05-06 16:34 | 51.17115 | 19.98376 | 23957 ft | 415 kts | 342° |
| 2026-05-06 16:34 | 51.19877 | 19.97036 | 24420 ft | 416 kts | 339° |
| 2026-05-06 16:34 | 51.22610 | 19.95650 | 24877 ft | 419 kts | 338° |
| 2026-05-06 16:35 | 51.25428 | 19.94207 | 25339 ft | 421 kts | 338° |
| 2026-05-06 16:35 | 51.28187 | 19.92781 | 25802 ft | 423 kts | 338° |
| 2026-05-06 16:35 | 51.30995 | 19.91320 | 26246 ft | 426 kts | 338° |
| 2026-05-06 16:35 | 51.33820 | 19.89844 | 26686 ft | 428 kts | 338° |
| 2026-05-06 16:36 | 51.36659 | 19.88364 | 27127 ft | 431 kts | 338° |
| 2026-05-06 16:36 | 51.39519 | 19.86875 | 27567 ft | 433 kts | 338° |
| 2026-05-06 16:36 | 51.42395 | 19.85377 | 28002 ft | 436 kts | 338° |
| 2026-05-06 16:36 | 51.45288 | 19.83871 | 28443 ft | 439 kts | 338° |
| 2026-05-06 16:37 | 51.48200 | 19.82354 | 28869 ft | 441 kts | 338° |
| 2026-05-06 16:37 | 51.51127 | 19.80824 | 29297 ft | 444 kts | 338° |
| 2026-05-06 16:37 | 51.54072 | 19.79274 | 29715 ft | 446 kts | 338° |
| 2026-05-06 16:37 | 51.57030 | 19.77716 | 30091 ft | 449 kts | 338° |
| 2026-05-06 16:38 | 51.60011 | 19.76150 | 30456 ft | 452 kts | 338° |
| 2026-05-06 16:38 | 51.63007 | 19.74579 | 30829 ft | 454 kts | 338° |
| 2026-05-06 16:38 | 51.66013 | 19.73003 | 31201 ft | 456 kts | 338° |
| 2026-05-06 16:38 | 51.69034 | 19.71420 | 31673 ft | 455 kts | 338° |
| 2026-05-06 16:39 | 51.72037 | 19.69846 | 32225 ft | 453 kts | 338° |
| 2026-05-06 16:39 | 51.75025 | 19.68270 | 32780 ft | 451 kts | 338° |
| 2026-05-06 16:39 | 51.78000 | 19.66693 | 33332 ft | 449 kts | 337° |
| 2026-05-06 16:39 | 51.80960 | 19.65122 | 33873 ft | 447 kts | 338° |
| 2026-05-06 16:40 | 51.83924 | 19.63604 | 34339 ft | 446 kts | 338° |
| 2026-05-06 16:40 | 51.86892 | 19.62145 | 34780 ft | 446 kts | 339° |
| 2026-05-06 16:40 | 51.89864 | 19.60718 | 35204 ft | 445 kts | 339° |
| 2026-05-06 16:40 | 51.92834 | 19.59302 | 35610 ft | 445 kts | 339° |
| 2026-05-06 16:41 | 51.95810 | 19.57877 | 35746 ft | 445 kts | 339° |
| 2026-05-06 16:41 | 52.01714 | 19.55001 | 35770 ft | 442 kts | 339° |
| 2026-05-06 16:42 | 52.07584 | 19.52089 | 35763 ft | 441 kts | 338° |
| 2026-05-06 16:42 | 52.13442 | 19.49170 | 35764 ft | 440 kts | 338° |
| 2026-05-06 16:43 | 52.19303 | 19.46267 | 35763 ft | 440 kts | 338° |
| 2026-05-06 16:43 | 52.24172 | 19.43854 | 35769 ft | 440 kts | 338° |
| 2026-05-06 16:44 | 52.30026 | 19.40932 | 35772 ft | 440 kts | 338° |
| 2026-05-06 16:44 | 52.35878 | 19.37997 | 35775 ft | 440 kts | 338° |
| 2026-05-06 16:45 | 52.42678 | 19.34577 | 35772 ft | 440 kts | 338° |
| 2026-05-06 16:45 | 52.47588 | 19.32117 | 35767 ft | 440 kts | 338° |
| 2026-05-06 16:45 | 52.50516 | 19.30651 | 35656 ft | 441 kts | 338° |
| 2026-05-06 16:46 | 52.53456 | 19.29171 | 35050 ft | 441 kts | 338° |
| 2026-05-06 16:46 | 52.56384 | 19.27691 | 34528 ft | 439 kts | 338° |
| 2026-05-06 16:46 | 52.59297 | 19.26215 | 33969 ft | 438 kts | 337° |
| 2026-05-06 16:46 | 52.62205 | 19.24743 | 33346 ft | 437 kts | 337° |
| 2026-05-06 16:47 | 52.65060 | 19.23295 | 32822 ft | 433 kts | 337° |
| 2026-05-06 16:47 | 52.67969 | 19.21819 | 32286 ft | 430 kts | 337° |
| 2026-05-06 16:47 | 52.70779 | 19.20391 | 31771 ft | 427 kts | 337° |
| 2026-05-06 16:47 | 52.73608 | 19.18954 | 31247 ft | 424 kts | 337° |
| 2026-05-06 16:48 | 52.76419 | 19.17526 | 30722 ft | 421 kts | 337° |
| 2026-05-06 16:48 | 52.79209 | 19.16106 | 30226 ft | 418 kts | 337° |
| 2026-05-06 16:48 | 52.81979 | 19.14692 | 29712 ft | 415 kts | 337° |
| 2026-05-06 16:48 | 52.84728 | 19.13279 | 29137 ft | 412 kts | 337° |
| 2026-05-06 16:49 | 52.87458 | 19.11871 | 28576 ft | 409 kts | 337° |
| 2026-05-06 16:49 | 52.90162 | 19.10477 | 28042 ft | 406 kts | 337° |
| 2026-05-06 16:49 | 52.92858 | 19.09090 | 27527 ft | 403 kts | 337° |
| 2026-05-06 16:49 | 52.95529 | 19.07717 | 27016 ft | 401 kts | 337° |
| 2026-05-06 16:50 | 52.98186 | 19.06348 | 26526 ft | 398 kts | 337° |
| 2026-05-06 16:50 | 53.00819 | 19.04988 | 26049 ft | 395 kts | 337° |
| 2026-05-06 16:50 | 53.03437 | 19.03634 | 25585 ft | 393 kts | 338° |
| 2026-05-06 16:50 | 53.06039 | 19.02290 | 25148 ft | 391 kts | 338° |
| 2026-05-06 16:51 | 53.08628 | 19.00952 | 24697 ft | 389 kts | 338° |
| 2026-05-06 16:51 | 53.11203 | 18.99616 | 24248 ft | 387 kts | 338° |
| 2026-05-06 16:51 | 53.13764 | 18.98285 | 23810 ft | 385 kts | 338° |
| 2026-05-06 16:51 | 53.16313 | 18.96958 | 23352 ft | 383 kts | 338° |
| 2026-05-06 16:52 | 53.18847 | 18.95638 | 22847 ft | 381 kts | 338° |
| 2026-05-06 16:52 | 53.21369 | 18.94324 | 22351 ft | 378 kts | 338° |
| 2026-05-06 16:52 | 53.23873 | 18.93018 | 21851 ft | 376 kts | 337° |
| 2026-05-06 16:52 | 53.26360 | 18.91719 | 21377 ft | 373 kts | 337° |
| 2026-05-06 16:53 | 53.28825 | 18.90429 | 20900 ft | 370 kts | 337° |
| 2026-05-06 16:53 | 53.31278 | 18.89143 | 20420 ft | 368 kts | 337° |
| 2026-05-06 16:53 | 53.33679 | 18.87884 | 19960 ft | 365 kts | 337° |
| 2026-05-06 16:53 | 53.36126 | 18.86595 | 19508 ft | 363 kts | 337° |
| 2026-05-06 16:54 | 53.38496 | 18.85343 | 19055 ft | 361 kts | 337° |
| 2026-05-06 16:54 | 53.40879 | 18.84085 | 18625 ft | 358 kts | 337° |
| 2026-05-06 16:54 | 53.43249 | 18.82839 | 18200 ft | 356 kts | 337° |
| 2026-05-06 16:54 | 53.45603 | 18.81600 | 17733 ft | 353 kts | 337° |
| 2026-05-06 16:55 | 53.47943 | 18.80364 | 17248 ft | 350 kts | 337° |
| 2026-05-06 16:55 | 53.50258 | 18.79140 | 16791 ft | 348 kts | 337° |
| 2026-05-06 16:55 | 53.52604 | 18.78160 | 16339 ft | 349 kts | 346° |
| 2026-05-06 16:55 | 53.55031 | 18.77815 | 15887 ft | 349 kts | 351° |
| 2026-05-06 16:56 | 53.57448 | 18.77550 | 15462 ft | 347 kts | 351° |
| 2026-05-06 16:56 | 53.59846 | 18.77280 | 15049 ft | 344 kts | 351° |
| 2026-05-06 16:56 | 53.62228 | 18.77008 | 14643 ft | 342 kts | 351° |
| 2026-05-06 16:56 | 53.64590 | 18.76734 | 14241 ft | 339 kts | 351° |
| 2026-05-06 16:57 | 53.66935 | 18.76465 | 13842 ft | 337 kts | 351° |
| 2026-05-06 16:57 | 53.69258 | 18.76201 | 13379 ft | 331 kts | 351° |
| 2026-05-06 16:57 | 53.71557 | 18.75940 | 12936 ft | 329 kts | 351° |
| 2026-05-06 16:57 | 53.73801 | 18.75674 | 12803 ft | 317 kts | 349° |
| 2026-05-06 16:58 | 53.75895 | 18.74881 | 12670 ft | 301 kts | 335° |
| 2026-05-06 16:58 | 53.77724 | 18.73376 | 12517 ft | 286 kts | 322° |
| 2026-05-06 16:58 | 53.79260 | 18.71324 | 12235 ft | 279 kts | 312° |
| 2026-05-06 16:58 | 53.80694 | 18.69126 | 11914 ft | 278 kts | 313° |
| 2026-05-06 16:59 | 53.82129 | 18.66940 | 11585 ft | 277 kts | 313° |
| 2026-05-06 16:59 | 53.83562 | 18.64764 | 11263 ft | 276 kts | 313° |
| 2026-05-06 16:59 | 53.84990 | 18.62594 | 10942 ft | 276 kts | 313° |
| 2026-05-06 16:59 | 53.86414 | 18.60425 | 10646 ft | 275 kts | 313° |
| 2026-05-06 17:00 | 53.87811 | 18.58290 | 10334 ft | 274 kts | 313° |
| 2026-05-06 17:00 | 53.89222 | 18.56127 | 10033 ft | 273 kts | 313° |
| 2026-05-06 17:00 | 53.90649 | 18.53941 | 9737 ft | 272 kts | 313° |
| 2026-05-06 17:00 | 53.92052 | 18.51790 | 9415 ft | 272 kts | 314° |
| 2026-05-06 17:01 | 53.93431 | 18.49670 | 9091 ft | 270 kts | 314° |
| 2026-05-06 17:01 | 53.94821 | 18.47535 | 8791 ft | 269 kts | 314° |
| 2026-05-06 17:01 | 53.96206 | 18.45410 | 8476 ft | 268 kts | 314° |
| 2026-05-06 17:01 | 53.97588 | 18.43308 | 8174 ft | 267 kts | 317° |
| 2026-05-06 17:02 | 53.99136 | 18.41558 | 7871 ft | 269 kts | 329° |
| 2026-05-06 17:02 | 54.00814 | 18.40162 | 7566 ft | 268 kts | 330° |
| 2026-05-06 17:02 | 54.02481 | 18.38772 | 7317 ft | 265 kts | 330° |
| 2026-05-06 17:02 | 54.04110 | 18.37408 | 7180 ft | 257 kts | 330° |
| 2026-05-06 17:03 | 54.05688 | 18.36084 | 7075 ft | 249 kts | 330° |
| 2026-05-06 17:03 | 54.07221 | 18.34792 | 6899 ft | 244 kts | 330° |
| 2026-05-06 17:03 | 54.08735 | 18.33515 | 6637 ft | 242 kts | 330° |
| 2026-05-06 17:03 | 54.10242 | 18.32245 | 6377 ft | 241 kts | 330° |
| 2026-05-06 17:04 | 54.11739 | 18.30980 | 6111 ft | 240 kts | 330° |
| 2026-05-06 17:04 | 54.13229 | 18.29720 | 5824 ft | 239 kts | 331° |
| 2026-05-06 17:04 | 54.14712 | 18.28460 | 5530 ft | 238 kts | 331° |
| 2026-05-06 17:04 | 54.16192 | 18.27205 | 5243 ft | 237 kts | 331° |
| 2026-05-06 17:05 | 54.17660 | 18.25963 | 5055 ft | 234 kts | 331° |
| 2026-05-06 17:05 | 54.19127 | 18.24724 | 5005 ft | 235 kts | 332° |
| 2026-05-06 17:05 | 54.20597 | 18.23476 | 5006 ft | 236 kts | 331° |
| 2026-05-06 17:05 | 54.22067 | 18.22228 | 5009 ft | 236 kts | 331° |
| 2026-05-06 17:06 | 54.23536 | 18.20979 | 5012 ft | 236 kts | 331° |
| 2026-05-06 17:06 | 54.25023 | 18.19791 | 5009 ft | 236 kts | 339° |
| 2026-05-06 17:06 | 54.26641 | 18.19300 | 5005 ft | 238 kts | 358° |
| 2026-05-06 17:06 | 54.28279 | 18.19733 | 5005 ft | 241 kts | 17° |
| 2026-05-06 17:07 | 54.29830 | 18.20827 | 5010 ft | 241 kts | 21° |
| 2026-05-06 17:07 | 54.31379 | 18.21927 | 5008 ft | 241 kts | 18° |
| 2026-05-06 17:07 | 54.33016 | 18.22218 | 5010 ft | 237 kts | 348° |
| 2026-05-06 17:07 | 54.34507 | 18.21137 | 5009 ft | 234 kts | 320° |
| 2026-05-06 17:08 | 54.35514 | 18.19007 | 5016 ft | 232 kts | 294° |
| 2026-05-06 17:08 | 54.36136 | 18.16458 | 5013 ft | 232 kts | 291° |
| 2026-05-06 17:08 | 54.36750 | 18.13903 | 5013 ft | 232 kts | 291° |
| 2026-05-06 17:08 | 54.37367 | 18.11351 | 5013 ft | 232 kts | 292° |
| 2026-05-06 17:09 | 54.37988 | 18.08800 | 5016 ft | 232 kts | 292° |
| 2026-05-06 17:09 | 54.38605 | 18.06252 | 5016 ft | 231 kts | 292° |
| 2026-05-06 17:09 | 54.39220 | 18.03705 | 5021 ft | 231 kts | 292° |
| 2026-05-06 17:09 | 54.39836 | 18.01160 | 5015 ft | 231 kts | 292° |
| 2026-05-06 17:10 | 54.40452 | 17.98617 | 5023 ft | 227 kts | 292° |
| 2026-05-06 17:10 | 54.41046 | 17.96154 | 5024 ft | 222 kts | 292° |
| 2026-05-06 17:10 | 54.41632 | 17.93711 | 5027 ft | 221 kts | 292° |
| 2026-05-06 17:10 | 54.42218 | 17.91269 | 5027 ft | 221 kts | 292° |
| 2026-05-06 17:11 | 54.42804 | 17.88833 | 5028 ft | 221 kts | 292° |
| 2026-05-06 17:11 | 54.43668 | 17.86683 | 5030 ft | 221 kts | 322° |
| 2026-05-06 17:11 | 54.45062 | 17.85729 | 5032 ft | 224 kts | 356° |
| 2026-05-06 17:11 | 54.46583 | 17.86270 | 5032 ft | 227 kts | 21° |
| 2026-05-06 17:12 | 54.48045 | 17.87308 | 5033 ft | 228 kts | 21° |
| 2026-05-06 17:12 | 54.49488 | 17.88443 | 5031 ft | 229 kts | 33° |
| 2026-05-06 17:12 | 54.50505 | 17.90515 | 5029 ft | 231 kts | 68° |
| 2026-05-06 17:12 | 54.50684 | 17.93232 | 5028 ft | 232 kts | 102° |
| 2026-05-06 17:13 | 54.50123 | 17.95831 | 5033 ft | 233 kts | 114° |
| 2026-05-06 17:13 | 54.49494 | 17.98401 | 5028 ft | 231 kts | 113° |
| 2026-05-06 17:13 | 54.48881 | 18.00930 | 5027 ft | 228 kts | 114° |
| 2026-05-06 17:13 | 54.48271 | 18.03453 | 5024 ft | 228 kts | 113° |
| 2026-05-06 17:14 | 54.47664 | 18.05965 | 4999 ft | 226 kts | 113° |
| 2026-05-06 17:14 | 54.47064 | 18.08453 | 4709 ft | 225 kts | 113° |
| 2026-05-06 17:14 | 54.46462 | 18.10942 | 4359 ft | 228 kts | 112° |
| 2026-05-06 17:14 | 54.45849 | 18.13468 | 3878 ft | 228 kts | 112° |
| 2026-05-06 17:15 | 54.45245 | 18.15965 | 3519 ft | 221 kts | 112° |
| 2026-05-06 17:15 | 54.44668 | 18.18347 | 3207 ft | 213 kts | 112° |
| 2026-05-06 17:15 | 54.44102 | 18.20679 | 2818 ft | 209 kts | 111° |
| 2026-05-06 17:15 | 54.43551 | 18.22954 | 2522 ft | 201 kts | 111° |
| 2026-05-06 17:16 | 54.43033 | 18.25087 | 2509 ft | 189 kts | 111° |
| 2026-05-06 17:16 | 54.42533 | 18.27140 | 2531 ft | 185 kts | 111° |
| 2026-05-06 17:16 | 54.42065 | 18.29060 | 2505 ft | 160 kts | 111° |
| 2026-05-06 17:16 | 54.41650 | 18.30755 | 2496 ft | 149 kts | 110° |
| 2026-05-06 17:17 | 54.41260 | 18.32383 | 2334 ft | 146 kts | 110° |
| 2026-05-06 17:17 | 54.40874 | 18.33952 | 2030 ft | 142 kts | 110° |
| 2026-05-06 17:17 | 54.40491 | 18.35490 | 1734 ft | 139 kts | 109° |
| 2026-05-06 17:17 | 54.40126 | 18.36980 | 1510 ft | 132 kts | 108° |
| 2026-05-06 17:18 | 54.39780 | 18.38401 | 1327 ft | 131 kts | 108° |
| 2026-05-06 17:18 | 54.39426 | 18.39869 | 1146 ft | 130 kts | 107° |
| 2026-05-06 17:18 | 54.39084 | 18.41275 | 981 ft | 128 kts | 107° |
| 2026-05-06 17:18 | 54.38731 | 18.42688 | 798 ft | 128 kts | 107° |
| 2026-05-06 17:19 | 54.38379 | 18.44090 | 654 ft | 129 kts | 107° |
| 2026-05-06 17:19 | 54.38032 | 18.45489 | 477 ft | 127 kts | 106° |
| 2026-05-06 17:19 | 54.37737 | 18.46725 | 456 ft | 89 kts | 114° |
| 2026-05-06 17:19 | 54.37557 | 18.47430 | 463 ft | 41 kts | 112° |
| 2026-05-06 17:20 | 54.37494 | 18.47686 | 463 ft | 6 kts | 113° |
| 2026-05-06 17:20 | 54.37474 | 18.47764 | 464 ft | 14 kts | 113° |
| 2026-05-06 17:20 | 54.37422 | 18.47990 | 465 ft | 24 kts | 110° |
| 2026-05-06 17:20 | 54.37358 | 18.48259 | 466 ft | 25 kts | 114° |
| 2026-05-06 17:21 | 54.37296 | 18.48523 | 476 ft | 21 kts | 94° |
| 2026-05-06 17:21 | 54.37363 | 18.48630 | 478 ft | 12 kts | 357° |
| 2026-05-06 17:21 | 54.37404 | 18.48647 | 476 ft | 0 kts | 15° |
| 2026-05-06 17:22 | 54.37422 | 18.48647 | 474 ft | 6 kts | 351° |
| 2026-05-06 17:22 | 54.37453 | 18.48574 | 473 ft | 10 kts | 290° |
| 2026-05-06 17:23 | 54.37484 | 18.48440 | 469 ft | 14 kts | 292° |
| 2026-05-06 17:23 | 54.37528 | 18.48271 | 468 ft | 15 kts | 293° |
| 2026-05-06 17:23 | 54.37570 | 18.48103 | 467 ft | 15 kts | 293° |
| 2026-05-06 17:23 | 54.37612 | 18.47931 | 465 ft | 16 kts | 293° |
| 2026-05-06 17:24 | 54.37656 | 18.47752 | 464 ft | 15 kts | 293° |
| 2026-05-06 17:24 | 54.37699 | 18.47574 | 462 ft | 17 kts | 292° |
| 2026-05-06 17:24 | 54.37748 | 18.47377 | 462 ft | 18 kts | 292° |
| 2026-05-06 17:24 | 54.37794 | 18.47185 | 459 ft | 14 kts | 292° |
| 2026-05-06 17:25 | 54.37835 | 18.47024 | 461 ft | 16 kts | 296° |
| 2026-05-06 17:25 | 54.37882 | 18.46837 | 457 ft | 19 kts | 293° |
| 2026-05-06 17:25 | 54.37929 | 18.46649 | 459 ft | 14 kts | 292° |
| 2026-05-06 17:25 | 54.37978 | 18.46553 | 458 ft | 6 kts | 358° |
| 2026-05-06 17:26 | 54.37995 | 18.46579 | 456 ft | 4 kts | 52° |
| 2026-05-06 17:26 | 54.38016 | 18.46605 | 458 ft | 0 kts | 21° |
| 2026-05-06 17:27 | 54.38029 | 18.46613 | 458 ft | 3 kts | 19° |
| 2026-05-06 17:27 | 54.38041 | 18.46616 | 457 ft | 0 kts | 355° |
| 2026-05-06 17:28 | 54.38049 | 18.46613 | 457 ft | 3 kts | 346° |
| 2026-05-06 17:28 | 54.38074 | 18.46576 | 457 ft | 7 kts | 306° |
| 2026-05-06 17:28 | 54.38099 | 18.46479 | 456 ft | 11 kts | 292° |
| 2026-05-06 17:28 | 54.38133 | 18.46340 | 457 ft | 13 kts | 292° |
| 2026-05-06 17:29 | 54.38173 | 18.46304 | 456 ft | 5 kts | 29° |
| 2026-05-06 17:29 | 54.38190 | 18.46322 | 455 ft | 0 kts | 24° |